Time;durP1;ratioP1;P1;durP2;ratioP2;P2;SDS_P1;SDS_P2;PMS_P1;PMS_P2;Temp;Humidity;BMP_temperature;BMP_pressure;BME280_temperature;BME280_humidity;BME280_pressure;Samples;Min_cycle;Max_cycle;Signal;HPM_P1;HPM_P2
2023/08/26 00:02:47;;;;;;;;;23.75;23.25;;;;;28.72;45.99;100607.09;146624;601;45020;-66
2023/08/26 00:06:01;;;;;;;;;23.25;22.25;;;;;28.61;46.48;100615.41;146622;579;45017;-65
2023/08/26 00:09:04;;;;;;;;;21.50;20.25;;;;;28.58;46.02;100603.94;146623;584;45020;-65
2023/08/26 00:12:03;;;;;;;;;25.25;24.75;;;;;28.58;47.49;100593.25;146622;602;45017;-65
2023/08/26 00:15:03;;;;;;;;;22.25;20.25;;;;;28.65;46.57;100597.50;146622;565;45020;-64
2023/08/26 00:18:17;;;;;;;;;22.25;20.00;;;;;28.11;46.07;100504.63;146622;579;45016;-64
2023/08/26 00:21:17;;;;;;;;;20.50;19.50;;;;;28.64;45.32;100606.44;146622;615;45020;-64
2023/08/26 00:24:41;;;;;;;;;;;;;;;;;;;;;
2023/08/26 00:27:48;;;;;;;;;24.75;23.25;;;;;28.57;47.13;100594.16;146612;640;47020;-64
2023/08/26 00:31:13;;;;;;;;;23.75;21.50;;;;;28.71;46.96;100605.38;146617;657;46914;-65
2023/08/26 00:34:09;;;;;;;;;20.75;19.75;;;;;28.77;45.83;100599.87;146625;590;45031;-65
2023/08/26 00:37:17;;;;;;;;;25.25;21.00;;;;;28.68;46.67;100598.31;146621;595;46014;-64
2023/08/26 00:40:41;;;;;;;;;22.75;21.00;;;;;27.48;46.96;100387.09;146622;650;45021;-64
2023/08/26 00:43:37;;;;;;;;;25.75;24.25;;;;;28.67;45.77;100577.03;146621;564;45040;-64
2023/08/26 00:46:49;;;;;;;;;21.25;20.25;;;;;28.70;46.20;100577.81;146621;565;46011;-66
2023/08/26 00:50:21;;;;;;;;;20.75;18.75;;;;;28.70;45.18;100585.81;146619;603;45016;-66
2023/08/26 00:53:31;;;;;;;;;23.00;21.50;;;;;28.64;45.06;100567.28;146625;586;45020;-68
2023/08/26 00:56:38;;;;;;;;;27.50;24.00;;;;;28.61;45.86;100563.84;146620;596;45017;-65
2023/08/26 00:59:42;;;;;;;;;19.25;18.25;;;;;28.67;45.04;100571.69;146616;584;45020;-66
2023/08/26 01:02:43;;;;;;;;;28.50;24.25;;;;;28.67;44.33;100575.22;146622;576;45016;-65
2023/08/26 01:05:48;;;;;;;;;20.75;19.50;;;;;28.56;44.58;100569.28;146623;583;45020;-65
2023/08/26 01:08:41;;;;;;;;;20.50;19.25;;;;;28.55;45.04;100578.19;146618;670;46012;-64
2023/08/26 01:12:23;;;;;;;;;21.25;20.00;;;;;27.94;45.10;100459.72;146624;576;45021;-64
2023/08/26 01:15:41;;;;;;;;;24.00;22.00;;;;;27.75;45.19;100428.16;146617;639;46912;-65
2023/08/26 01:18:35;;;;;;;;;24.50;21.00;;;;;28.59;44.29;100574.53;146623;625;45020;-65
2023/08/26 01:21:48;;;;;;;;;24.50;23.75;;;;;28.62;45.09;100579.78;146621;569;45016;-65
2023/08/26 01:25:01;;;;;;;;;21.00;18.50;;;;;28.61;45.21;100575.38;146624;581;45021;-66
2023/08/26 01:27:57;;;;;;;;;25.25;22.50;;;;;28.60;44.71;100568.31;146621;569;45016;-65
2023/08/26 01:30:59;;;;;;;;;20.25;19.25;;;;;28.67;45.92;100563.69;146614;603;45021;-66
2023/08/26 01:34:48;;;;;;;;;22.25;19.25;;;;;28.73;44.56;100585.75;146618;620;45909;-66
2023/08/26 01:37:59;;;;;;;;;19.50;17.25;;;;;27.45;43.60;100376.50;146622;564;45021;-66
2023/08/26 01:41:16;;;;;;;;;20.00;19.25;;;;;28.57;44.74;100549.72;146621;569;45016;-65
2023/08/26 01:44:42;;;;;;;;;22.75;20.25;;;;;28.61;43.62;100580.72;146623;577;45020;-65
2023/08/26 01:48:01;;;;;;;;;20.25;19.00;;;;;28.60;45.52;100586.06;146620;673;45017;-68
2023/08/26 01:51:29;;;;;;;;;23.25;22.50;;;;;27.92;45.44;100451.75;146624;576;45020;-66
2023/08/26 01:54:39;;;;;;;;;20.00;18.50;;;;;28.75;44.92;100572.34;146617;588;46016;-65
2023/08/26 01:57:48;;;;;;;;;21.75;21.25;;;;;27.54;45.35;100384.28;146625;604;46014;-65
2023/08/26 02:00:49;;;;;;;;;25.25;21.25;;;;;28.70;47.11;100585.81;146619;609;45017;-65
2023/08/26 02:03:51;;;;;;;;;18.25;18.00;;;;;28.74;47.63;100582.13;146616;579;46020;-65
2023/08/26 02:07:20;;;;;;;;;;;;;;;;;;;;;
2023/08/26 02:10:32;;;;;;;;;25.00;23.75;;;;;28.60;48.76;100594.06;146625;570;45012;-65
2023/08/26 02:13:26;;;;;;;;;22.50;20.75;;;;;28.45;49.37;100590.03;146621;591;45016;-65
2023/08/26 02:16:23;;;;;;;;;22.00;21.25;;;;;28.36;50.29;100591.09;146624;575;45020;-63
2023/08/26 02:19:33;;;;;;;;;21.50;20.50;;;;;28.36;49.73;100585.75;146622;585;45016;-65
2023/08/26 02:22:32;;;;;;;;;24.50;21.50;;;;;28.45;49.80;100572.22;146620;688;45021;-65
2023/08/26 02:25:36;;;;;;;;;22.25;20.25;;;;;28.54;49.83;100593.34;146622;702;45017;-65
2023/08/26 02:28:41;;;;;;;;;23.50;22.00;;;;;28.50;47.87;100588.97;146624;600;45020;-66
2023/08/26 02:31:40;;;;;;;;;24.00;22.25;;;;;28.47;48.44;100578.38;146619;570;45016;-65
2023/08/26 02:35:02;;;;;;;;;20.50;19.25;;;;;28.55;48.06;100583.53;146616;660;45020;-67
2023/08/26 02:38:06;;;;;;;;;20.75;18.50;;;;;27.78;48.06;100460.06;146619;675;45912;-66
2023/08/26 02:41:10;;;;;;;;;22.50;19.75;;;;;28.60;49.14;100599.41;146625;569;46014;-65
2023/08/26 02:44:31;;;;;;;;;22.00;20.50;;;;;28.68;49.13;100597.44;146618;577;45912;-67
2023/08/26 02:47:32;;;;;;;;;19.75;18.75;;;;;28.71;48.54;100597.34;146624;573;45020;-68
2023/08/26 02:50:43;;;;;;;;;24.75;23.25;;;;;28.72;48.54;100609.78;146621;589;45016;-69
2023/08/26 02:53:42;;;;;;;;;24.25;21.50;;;;;28.68;48.16;100592.09;146620;572;45021;-64
2023/08/26 02:56:41;;;;;;;;;19.75;19.75;;;;;28.69;49.91;100599.19;146623;613;45016;-65
2023/08/26 02:59:49;;;;;;;;;;;;;;;;;;;;;
2023/08/26 03:02:46;;;;;;;;;22.00;19.00;;;;;28.64;49.01;100601.97;146616;589;46014;-64
2023/08/26 03:05:39;;;;;;;;;21.50;21.00;;;;;28.56;51.18;100614.62;146615;602;46014;-64
2023/08/26 03:08:35;;;;;;;;;22.25;21.00;;;;;28.37;50.29;100610.63;146615;583;47913;-67
2023/08/26 03:11:39;;;;;;;;;22.25;21.50;;;;;28.25;50.16;100610.00;146622;569;45020;-65
2023/08/26 03:14:42;;;;;;;;;;;;;;;;;;;;;
2023/08/26 03:17:37;;;;;;;;;23.50;21.25;;;;;28.14;51.00;100612.03;146624;583;46012;-67
2023/08/26 03:20:57;;;;;;;;;25.00;23.75;;;;;27.57;50.68;100511.16;146619;570;45016;-66
2023/08/26 03:24:04;;;;;;;;;23.50;21.00;;;;;28.14;50.88;100621.84;146622;578;45021;-66
2023/08/26 03:27:31;;;;;;;;;19.50;18.00;;;;;28.05;50.52;100620.25;146617;611;45016;-67
2023/08/26 03:30:31;;;;;;;;;20.25;18.50;;;;;28.14;51.03;100622.72;146623;569;45022;-67
2023/08/26 03:33:35;;;;;;;;;20.00;18.75;;;;;28.22;50.63;100636.72;146616;569;46010;-68
2023/08/26 03:36:41;;;;;;;;;20.50;19.00;;;;;28.16;50.24;100625.31;146619;599;45020;-67
2023/08/26 03:39:41;;;;;;;;;19.50;17.75;;;;;28.18;50.44;100623.50;146622;572;45017;-67
2023/08/26 03:42:58;;;;;;;;;;;;;;;;;;;;;
2023/08/26 03:45:54;;;;;;;;;20.25;20.00;;;;;27.95;50.44;100610.72;146621;564;45019;-66
2023/08/26 03:49:29;;;;;;;;;22.50;19.50;;;;;26.64;49.89;100397.75;146624;570;45020;-66
2023/08/26 03:52:28;;;;;;;;;18.50;18.50;;;;;27.82;50.09;100631.41;146620;607;46012;-66
2023/08/26 03:55:27;;;;;;;;;20.75;20.75;;;;;27.77;49.94;100609.28;146624;609;45020;-63
2023/08/26 03:58:31;;;;;;;;;23.50;20.50;;;;;27.74;50.19;100622.69;146620;676;45016;-65
2023/08/26 04:01:30;;;;;;;;;22.75;19.50;;;;;27.60;49.89;100642.50;146621;604;45044;-64
2023/08/26 04:04:27;;;;;;;;;22.75;20.25;;;;;27.54;49.84;100620.41;146622;607;45016;-65
2023/08/26 04:07:23;;;;;;;;;20.75;19.25;;;;;27.58;49.80;100625.66;146619;579;46014;-66
2023/08/26 04:10:46;;;;;;;;;23.50;20.25;;;;;27.68;49.26;100628.13;146622;649;45016;-64
2023/08/26 04:13:45;;;;;;;;;22.25;21.25;;;;;27.79;49.81;100631.50;146623;617;45020;-64
2023/08/26 04:16:48;;;;;;;;;18.75;18.00;;;;;27.79;49.42;100634.16;146618;625;45916;-66
2023/08/26 04:19:55;;;;;;;;;17.75;17.75;;;;;27.80;49.44;100636.78;146624;698;45020;-66
2023/08/26 04:22:49;;;;;;;;;20.00;19.00;;;;;27.83;49.35;100619.84;146619;589;45017;-65
2023/08/26 04:25:57;;;;;;;;;22.00;20.25;;;;;27.84;49.35;100634.91;146619;672;46020;-66
2023/08/26 04:29:00;;;;;;;;;21.25;19.75;;;;;27.78;50.03;100645.69;146622;572;45016;-67
2023/08/26 04:32:01;;;;;;;;;18.00;18.00;;;;;27.79;49.53;100655.47;146624;598;45020;-67
2023/08/26 04:35:00;;;;;;;;;20.25;17.75;;;;;27.88;49.28;100649.91;146618;593;46012;-65
2023/08/26 04:38:06;;;;;;;;;19.25;19.25;;;;;28.02;49.73;100645.19;146620;573;45021;-64
2023/08/26 04:41:10;;;;;;;;;23.75;19.75;;;;;28.21;49.38;100644.78;146620;577;46012;-67
2023/08/26 04:44:07;;;;;;;;;22.75;20.50;;;;;28.37;48.57;100659.50;146625;582;45020;-66
2023/08/26 04:47:07;;;;;;;;;21.25;19.25;;;;;28.47;48.65;100655.72;146619;654;46012;-66
2023/08/26 04:50:06;;;;;;;;;20.25;19.00;;;;;28.68;48.26;100673.00;146621;625;46010;-66
2023/08/26 04:52:58;;;;;;;;;19.75;19.00;;;;;28.78;48.30;100673.66;146619;676;45914;-65
2023/08/26 04:56:15;;;;;;;;;18.25;17.50;;;;;28.93;47.66;100673.28;146623;582;46014;-67
2023/08/26 04:59:20;;;;;;;;;21.50;19.75;;;;;29.14;46.98;100677.22;146620;606;46012;-66
2023/08/26 05:02:30;;;;;;;;;;;;;;;;;;;;;
2023/08/26 05:05:30;;;;;;;;;20.00;17.50;;;;;29.43;47.00;100673.75;146612;576;47912;-66
2023/08/26 05:31:31;;;;;;;;;21.25;20.75;;;;;29.46;45.15;100683.50;146706;575;45012;-68
2023/08/26 05:34:43;;;;;;;;;;;;;;;;;;;;;
2023/08/26 05:37:51;;;;;;;;;22.75;20.75;;;;;29.85;44.79;100689.56;146622;600;46010;-66
2023/08/26 05:40:51;;;;;;;;;23.25;20.50;;;;;30.06;44.34;100705.88;146616;576;45016;-66
2023/08/26 05:44:15;;;;;;;;;24.50;23.75;;;;;30.22;44.82;100682.25;146621;617;45020;-66
2023/08/26 05:47:26;;;;;;;;;;;;;;;;;;;;;
2023/08/26 05:50:32;;;;;;;;;23.25;20.75;;;;;30.22;44.11;100677.78;146617;563;45021;-68
2023/08/26 05:53:51;;;;;;;;;24.25;22.50;;;;;30.22;44.36;100669.78;146616;575;45016;-68
2023/08/26 05:56:52;;;;;;;;;22.50;20.50;;;;;30.18;44.22;100692.13;146620;557;45021;-67
2023/08/26 05:59:48;;;;;;;;;23.00;22.75;;;;;30.12;44.63;100684.28;146614;614;45016;-66
2023/08/26 06:02:46;;;;;;;;;19.50;18.25;;;;;30.18;45.12;100683.22;146618;572;45021;-63
2023/08/26 06:05:54;;;;;;;;;27.50;23.50;;;;;30.23;45.22;100692.91;146610;570;48917;-67
2023/08/26 06:09:02;;;;;;;;;;;;;;;;;;;;;
2023/08/26 06:12:16;;;;;;;;;23.25;20.75;;;;;30.34;44.42;100682.75;146615;668;45021;-69
2023/08/26 06:15:13;;;;;;;;;22.00;22.00;;;;;30.46;44.43;100688.63;146624;563;45020;-66
2023/08/26 06:18:09;;;;;;;;;22.00;21.75;;;;;30.64;44.74;100679.16;146616;571;45017;-66
2023/08/26 06:21:09;;;;;;;;;24.00;21.00;;;;;30.96;44.61;100678.09;146623;569;45020;-67
2023/08/26 19:49:17;;;;;;;;;34.25;30.25;;;;;26.03;60.86;100579.53;146700;564;45022;-82
2023/08/26 19:52:20;;;;;;;;;41.75;34.50;;;;;25.07;58.71;100417.06;146613;588;45944;-80
2023/08/26 19:55:21;;;;;;;;;43.00;33.25;;;;;26.03;60.85;100577.75;146612;650;45020;-79
2023/08/26 19:58:19;;;;;;;;;38.25;32.25;;;;;26.23;61.87;100581.88;146608;554;45915;-80
2023/08/26 20:01:19;;;;;;;;;40.50;34.25;;;;;26.47;63.25;100575.31;146612;588;45021;-79
2023/08/26 20:04:25;;;;;;;;;37.75;32.50;;;;;26.55;61.98;100575.22;146607;666;45916;-81
2023/08/26 20:07:34;;;;;;;;;41.25;34.25;;;;;26.66;62.03;100560.81;146614;604;45021;-80
2023/08/26 20:10:31;;;;;;;;;38.75;31.75;;;;;26.79;61.63;100565.91;146607;569;45916;-80
2023/08/26 20:13:23;;;;;;;;;37.50;33.25;;;;;26.90;61.97;100556.84;146612;611;45020;-79
2023/08/26 20:16:38;;;;;;;;;45.75;37.50;;;;;26.95;60.92;100556.78;146609;565;45017;-80
2023/08/26 20:19:37;;;;;;;;;42.25;35.75;;;;;26.91;60.87;100552.41;146611;598;46010;-80
2023/08/26 20:22:43;;;;;;;;;40.75;34.00;;;;;26.90;61.58;100554.19;146608;575;45916;-80
2023/08/26 20:25:48;;;;;;;;;44.75;37.25;;;;;27.07;61.38;100550.31;146613;626;45020;-80
2023/08/26 20:28:41;;;;;;;;;43.50;35.75;;;;;27.23;58.60;100541.19;146608;660;45914;-80
2023/08/26 20:31:35;;;;;;;;;43.00;33.75;;;;;27.36;61.70;100541.78;146612;565;45020;-81
2023/08/26 20:34:37;;;;;;;;;42.25;34.75;;;;;27.51;61.00;100537.91;146607;641;45913;-80
2023/08/26 20:37:46;;;;;;;;;42.75;36.25;;;;;27.70;60.90;100535.75;146613;581;45021;-80
2023/08/26 20:40:58;;;;;;;;;39.50;33.00;;;;;27.89;59.81;100537.09;146607;628;45914;-81
2023/08/26 20:44:21;;;;;;;;;38.00;32.75;;;;;28.00;59.32;100540.38;146611;605;45021;-81
2023/08/26 20:47:16;;;;;;;;;41.00;34.75;;;;;27.99;58.44;100535.97;146608;573;46012;-80
2023/08/26 20:50:29;;;;;;;;;40.25;34.25;;;;;27.96;59.53;100540.50;146617;580;45021;-78
2023/08/26 20:53:23;;;;;;;;;36.50;32.50;;;;;27.98;60.40;100536.03;146612;569;46014;-80
2023/08/26 20:56:25;;;;;;;;;44.00;36.25;;;;;28.04;60.68;100536.75;146616;585;45020;-81
2023/08/26 20:59:31;;;;;;;;;35.75;31.25;;;;;28.03;59.57;100534.97;146613;572;45916;-79
2023/08/26 21:02:27;;;;;;;;;43.75;36.50;;;;;27.97;59.90;100534.25;146616;608;45020;-81
2023/08/26 21:05:22;;;;;;;;;39.00;33.75;;;;;27.91;60.45;100529.94;146614;585;45017;-80
2023/08/26 21:08:20;;;;;;;;;37.75;33.00;;;;;27.91;59.15;100524.59;146617;618;45021;-80
2023/08/26 21:11:35;;;;;;;;;40.25;33.00;;;;;27.36;57.19;100435.31;146610;700;45914;-81
2023/08/26 21:14:36;;;;;;;;;37.00;32.75;;;;;27.95;59.08;100520.09;146617;604;45021;-79
2023/08/26 21:17:43;;;;;;;;;37.50;32.50;;;;;28.05;59.56;100537.63;146612;563;45916;-79
2023/08/26 21:20:49;;;;;;;;;35.25;30.75;;;;;28.13;59.67;100537.44;146615;565;45021;-80
2023/08/26 21:23:55;;;;;;;;;33.25;29.00;;;;;28.15;59.71;100530.28;146611;619;45034;-79
2023/08/26 21:26:57;;;;;;;;;33.50;30.25;;;;;28.14;58.96;100540.06;146616;688;46014;-81
2023/08/26 21:29:59;;;;;;;;;34.00;29.50;;;;;28.13;59.26;100535.66;146616;574;45017;-81
2023/08/26 21:33:05;;;;;;;;;34.50;29.50;;;;;28.07;57.83;100543.81;146615;565;45020;-79
2023/08/26 21:36:13;;;;;;;;;33.00;30.75;;;;;27.98;57.30;100541.34;146613;658;46012;-81
2023/08/26 21:39:14;;;;;;;;;35.00;31.00;;;;;27.86;56.69;100543.38;146617;594;46020;-82
2023/08/26 21:42:19;;;;;;;;;32.00;28.75;;;;;27.76;57.18;100543.59;146614;578;45016;-80
2023/08/26 21:45:12;;;;;;;;;33.75;30.50;;;;;27.75;58.22;100539.16;146617;572;45021;-80
2023/08/26 21:48:26;;;;;;;;;33.75;29.00;;;;;27.79;57.58;100540.91;146610;577;45914;-79
2023/08/26 21:51:39;;;;;;;;;30.00;29.25;;;;;27.87;58.65;100541.59;146616;608;45021;-82
2023/08/26 21:54:45;;;;;;;;;33.75;29.25;;;;;27.22;56.98;100450.69;146615;590;45016;-79
2023/08/26 21:57:37;;;;;;;;;35.25;30.00;;;;;27.60;57.50;100529.72;146616;588;45021;-78
2023/08/26 22:00:39;;;;;;;;;29.50;27.75;;;;;27.49;57.05;100523.78;146611;585;45914;-77
2023/08/26 22:03:46;;;;;;;;;28.75;27.25;;;;;27.36;56.83;100525.81;146617;608;46010;-80
2023/08/26 22:06:43;;;;;;;;;30.50;28.25;;;;;27.23;56.38;100525.19;146613;611;45914;-77
2023/08/26 22:09:36;;;;;;;;;29.25;27.00;;;;;27.15;56.79;100528.00;146617;646;45020;-76
2023/08/26 22:12:38;;;;;;;;;37.25;28.25;;;;;27.10;56.93;100534.28;146611;654;45017;-83
2023/08/26 22:15:41;;;;;;;;;31.75;26.75;;;;;27.05;56.89;100525.53;146616;642;45021;-77
2023/08/26 22:18:54;;;;;;;;;;;;;;;;;;;;;
2023/08/26 22:21:55;;;;;;;;;25.25;22.50;;;;;26.93;56.73;100521.31;146618;582;45021;-82
2023/08/26 22:25:02;;;;;;;;;26.75;25.75;;;;;26.37;56.13;100438.13;146614;609;45913;-75
2023/08/26 22:28:06;;;;;;;;;26.75;26.75;;;;;26.86;56.74;100517.91;146614;594;45045;-82
2023/08/26 22:31:12;;;;;;;;;26.75;25.25;;;;;26.94;57.48;100518.63;146612;630;45913;-83
2023/08/26 22:34:14;;;;;;;;;29.50;28.00;;;;;27.10;57.47;100527.22;146616;579;45020;-83
2023/08/26 22:37:13;;;;;;;;;25.75;24.25;;;;;27.18;57.48;100522.63;146609;591;46014;-81
2023/08/26 22:40:16;;;;;;;;;26.25;22.25;;;;;27.27;58.16;100523.34;146617;616;45038;-78
2023/08/26 22:43:31;;;;;;;;;29.25;27.00;;;;;27.25;58.22;100525.16;146609;566;45915;-78
2023/08/26 22:46:31;;;;;;;;;26.25;24.75;;;;;27.28;58.23;100525.09;146615;669;45020;-79
2023/08/26 22:49:41;;;;;;;;;27.00;24.00;;;;;27.22;56.73;100525.22;146605;590;46013;-80
2023/08/26 22:53:03;;;;;;;;;29.00;25.75;;;;;27.17;55.16;100526.19;146611;606;46010;-79
2023/08/26 22:55:56;;;;;;;;;25.00;23.00;;;;;27.14;55.01;100533.38;146605;610;46012;-76
2023/08/26 22:58:58;;;;;;;;;21.75;21.50;;;;;27.10;54.81;100521.87;146612;624;45021;-76
2023/08/26 23:01:54;;;;;;;;;25.50;24.25;;;;;27.06;55.27;100520.16;146609;575;45016;-78
2023/08/26 23:05:08;;;;;;;;;30.50;26.00;;;;;27.15;56.63;100521.81;146611;627;46011;-81
2023/08/26 23:08:15;;;;;;;;;24.50;24.00;;;;;27.31;57.21;100522.38;146606;600;46012;-77
2023/08/26 23:11:17;;;;;;;;;25.50;22.50;;;;;27.45;56.28;100524.75;146612;569;45020;-74
2023/08/26 23:14:26;;;;;;;;;26.25;24.25;;;;;27.52;56.96;100526.38;146607;590;46012;-73
2023/08/26 23:17:36;;;;;;;;;26.50;24.25;;;;;27.59;55.60;100527.97;146612;590;45020;-74
2023/08/26 23:20:43;;;;;;;;;28.75;24.00;;;;;27.52;56.09;100527.25;146607;594;46012;-75
2023/08/26 23:23:47;;;;;;;;;23.25;22.50;;;;;26.87;56.09;100431.88;146612;595;45020;-78
2023/08/26 23:26:51;;;;;;;;;25.75;24.50;;;;;27.32;54.90;100524.13;146610;572;45017;-77
2023/08/26 23:29:48;;;;;;;;;23.75;23.75;;;;;27.30;56.29;100523.28;146612;581;45021;-78
2023/08/26 23:32:58;;;;;;;;;22.75;21.00;;;;;27.30;56.37;100526.81;146606;575;46014;-80
2023/08/26 23:35:59;;;;;;;;;23.00;22.75;;;;;27.18;55.18;100524.41;146615;664;45021;-72
2023/08/26 23:38:56;;;;;;;;;25.00;23.00;;;;;27.12;55.55;100532.47;146607;569;46012;-73
2023/08/26 23:41:50;;;;;;;;;26.50;24.50;;;;;27.16;57.64;100537.72;146610;610;46011;-76
2023/08/26 23:45:04;;;;;;;;;25.75;23.75;;;;;27.28;56.00;100544.59;146607;567;45914;-81
2023/08/26 23:48:03;;;;;;;;;30.00;26.50;;;;;27.38;53.32;100532.88;146615;573;46010;-78
2023/08/26 23:51:19;;;;;;;;;25.75;24.50;;;;;26.45;54.11;100367.09;146613;615;45913;-78
2023/08/26 23:54:21;;;;;;;;;24.75;24.00;;;;;27.45;54.53;100530.09;146617;580;45020;-76
2023/08/26 23:57:30;;;;;;;;;19.75;19.75;;;;;27.42;54.41;100530.16;146613;587;45016;-81
